Time;durP1;ratioP1;P1;durP2;ratioP2;P2;SDS_P1;SDS_P2;PMS_P1;PMS_P2;Temp;Humidity;BMP_temperature;BMP_pressure;BME280_temperature;BME280_humidity;BME280_pressure;Samples;Min_cycle;Max_cycle;Signal;HPM_P1;HPM_P2
2023/09/22 00:00:14;;;;;;;3.85;1.48;;;16.70;99.90;;;;;;5055536;28;20064;-41
2023/09/22 00:02:43;;;;;;;4.03;1.33;;;16.70;99.90;;;;;;5048870;28;20497;-41
2023/09/22 00:05:13;;;;;;;4.13;1.35;;;16.70;99.90;;;;;;5047589;28;20163;-41
2023/09/22 00:07:42;;;;;;;1.52;1.10;;;16.70;99.90;;;;;;5038293;28;20573;-42
2023/09/22 00:10:12;;;;;;;2.53;1.17;;;16.60;99.90;;;;;;5049119;28;20133;-42
2023/09/22 00:12:41;;;;;;;2.25;1.30;;;16.70;99.90;;;;;;5054265;28;20032;-42
2023/09/22 00:15:10;;;;;;;1.40;1.30;;;16.70;99.90;;;;;;5040491;28;20046;-43
2023/09/22 00:17:37;;;;;;;2.00;1.15;;;16.70;99.90;;;;;;5036516;28;20140;-43
2023/09/22 00:20:08;;;;;;;1.95;1.20;;;16.70;99.90;;;;;;5047762;28;20076;-41
2023/09/22 00:22:36;;;;;;;2.87;1.40;;;16.60;99.90;;;;;;5053188;28;20090;-40
2023/09/22 00:25:03;;;;;;;1.73;1.30;;;16.60;99.90;;;;;;5038727;28;20056;-45
2023/09/22 00:27:31;;;;;;;1.73;1.30;;;16.50;99.90;;;;;;5048497;28;20040;-42
2023/09/22 00:29:59;;;;;;;3.63;1.80;;;16.50;99.90;;;;;;5036122;28;20055;-42
2023/09/22 00:32:26;;;;;;;2.65;1.42;;;16.50;99.90;;;;;;5044667;28;20036;-42
2023/09/22 00:34:53;;;;;;;1.60;1.20;;;16.50;99.90;;;;;;5033595;28;20045;-42
2023/09/22 00:37:22;;;;;;;1.33;1.17;;;16.50;99.90;;;;;;5054364;28;20131;-44
2023/09/22 00:39:50;;;;;;;2.13;1.30;;;16.50;99.90;;;;;;5043673;28;20044;-44
2023/09/22 00:42:17;;;;;;;2.15;1.40;;;16.40;99.90;;;;;;5032813;28;20486;-44
2023/09/22 00:44:45;;;;;;;2.33;1.30;;;16.40;99.90;;;;;;5048961;28;20045;-41
2023/09/22 00:47:15;;;;;;;1.83;1.27;;;16.40;99.90;;;;;;5046460;28;20049;-41
2023/09/22 00:49:45;;;;;;;1.80;1.20;;;16.40;99.90;;;;;;5050958;28;20132;-42
2023/09/22 00:52:13;;;;;;;1.92;1.10;;;16.40;99.90;;;;;;5043409;28;20053;-41
2023/09/22 00:54:41;;;;;;;2.05;1.20;;;16.40;99.90;;;;;;5039372;28;20136;-42
2023/09/22 00:57:09;;;;;;;2.95;1.30;;;16.40;99.90;;;;;;5049313;28;20049;-40
2023/09/22 00:59:37;;;;;;;1.60;1.20;;;16.40;99.90;;;;;;5047267;28;20064;-40
2023/09/22 01:02:05;;;;;;;2.05;1.20;;;16.20;99.90;;;;;;5051361;28;20573;-43
2023/09/22 01:04:34;;;;;;;1.70;1.40;;;16.10;99.90;;;;;;5055267;28;20156;-40
2023/09/22 01:07:01;;;;;;;2.67;1.23;;;16.00;99.90;;;;;;5051208;28;20071;-40
2023/09/22 01:09:28;;;;;;;1.83;1.20;;;16.00;99.90;;;;;;5039541;28;20139;-42
2023/09/22 01:11:56;;;;;;;1.95;1.25;;;16.00;99.90;;;;;;5050715;28;20362;-41
2023/09/22 01:14:23;;;;;;;2.28;1.20;;;16.10;99.90;;;;;;5043244;28;20044;-41
2023/09/22 01:16:53;;;;;;;2.33;1.10;;;16.00;99.90;;;;;;5043315;28;20037;-41
2023/09/22 01:19:20;;;;;;;2.25;1.33;;;16.00;99.90;;;;;;5043444;28;20052;-41
2023/09/22 01:21:48;;;;;;;2.17;1.30;;;15.90;99.90;;;;;;5049005;28;20045;-39
2023/09/22 01:24:15;;;;;;;1.65;1.20;;;15.90;99.90;;;;;;5048780;28;20040;-42
2023/09/22 01:26:43;;;;;;;2.08;1.25;;;15.90;99.90;;;;;;5049129;28;20055;-43
2023/09/22 01:29:10;;;;;;;2.90;1.20;;;15.80;99.90;;;;;;5049041;28;20144;-41
2023/09/22 01:31:38;;;;;;;2.15;1.20;;;15.80;99.90;;;;;;5044814;28;20046;-40
2023/09/22 01:34:08;;;;;;;2.08;1.10;;;15.70;99.90;;;;;;5049900;28;20060;-42
2023/09/22 01:36:35;;;;;;;2.60;1.40;;;15.80;99.90;;;;;;5047940;28;20048;-42
2023/09/22 01:39:04;;;;;;;1.75;1.20;;;15.70;99.90;;;;;;5047061;28;20358;-41
2023/09/22 01:41:35;;;;;;;1.73;1.05;;;15.70;99.90;;;;;;5049433;28;20041;-39
2023/09/22 01:44:03;;;;;;;1.50;1.10;;;15.70;99.90;;;;;;5050087;28;20120;-42
2023/09/22 01:46:30;;;;;;;2.55;1.20;;;15.70;99.90;;;;;;5042621;28;20152;-40
2023/09/22 01:48:58;;;;;;;2.05;1.00;;;15.70;99.90;;;;;;5043711;28;20048;-38
2023/09/22 01:51:26;;;;;;;2.75;1.30;;;15.70;99.90;;;;;;5033011;28;20057;-40
2023/09/22 01:53:55;;;;;;;1.73;1.00;;;15.70;99.90;;;;;;5040944;28;20052;-39
2023/09/22 01:56:22;;;;;;;2.33;1.10;;;15.70;99.90;;;;;;5046700;28;20474;-38
2023/09/22 01:58:50;;;;;;;2.00;1.10;;;15.70;99.90;;;;;;5043814;28;20136;-39
2023/09/22 02:01:18;;;;;;;1.60;1.08;;;15.70;99.90;;;;;;5053760;28;20052;-38
2023/09/22 02:03:46;;;;;;;3.50;1.20;;;15.70;99.90;;;;;;5047447;28;20570;-39
2023/09/22 02:06:14;;;;;;;2.30;1.33;;;15.70;99.90;;;;;;5028149;28;20446;-41
2023/09/22 02:08:43;;;;;;;1.67;1.08;;;15.70;99.90;;;;;;5042559;28;20123;-40
2023/09/22 02:11:11;;;;;;;2.97;1.40;;;15.70;99.90;;;;;;5044585;28;20048;-39
2023/09/22 02:13:40;;;;;;;2.75;1.17;;;15.70;99.90;;;;;;5046998;28;20128;-41
2023/09/22 02:16:07;;;;;;;2.55;1.08;;;15.60;99.90;;;;;;5039581;28;20041;-39
2023/09/22 02:18:35;;;;;;;2.05;1.10;;;15.60;99.90;;;;;;5053389;28;20052;-39
2023/09/22 02:21:05;;;;;;;1.17;1.00;;;15.60;99.90;;;;;;5055722;28;20048;-42
2023/09/22 02:23:33;;;;;;;1.92;1.00;;;15.60;99.90;;;;;;5053688;28;20045;-39
2023/09/22 02:26:07;;;;;;;1.65;1.00;;;15.70;99.90;;;;;;5047218;28;20112;-41
2023/09/22 02:28:35;;;;;;;3.22;1.10;;;15.60;99.90;;;;;;5043896;28;20478;-41
2023/09/22 02:31:02;;;;;;;2.03;1.10;;;15.60;99.90;;;;;;5046493;28;20197;-41
2023/09/22 02:33:30;;;;;;;3.63;1.30;;;15.60;99.90;;;;;;5044309;28;20087;-40
2023/09/22 02:35:59;;;;;;;3.30;1.20;;;15.60;99.90;;;;;;5041469;28;20044;-40
2023/09/22 02:38:26;;;;;;;2.75;1.17;;;15.60;99.90;;;;;;5047063;28;20140;-40
2023/09/22 02:40:54;;;;;;;2.90;1.10;;;15.50;99.90;;;;;;5052412;28;20041;-38
2023/09/22 02:43:21;;;;;;;1.30;0.95;;;15.50;99.90;;;;;;5048669;28;20051;-41
2023/09/22 02:45:51;;;;;;;2.95;1.38;;;15.40;99.90;;;;;;5048889;28;20049;-39
2023/09/22 02:48:18;;;;;;;2.20;1.20;;;15.40;99.90;;;;;;5042425;28;20203;-40
2023/09/22 02:50:46;;;;;;;2.83;1.20;;;15.40;99.90;;;;;;5048274;28;20147;-37
2023/09/22 02:53:13;;;;;;;2.38;1.33;;;15.40;99.90;;;;;;5041397;28;20041;-37
2023/09/22 02:55:41;;;;;;;1.67;1.02;;;15.50;99.90;;;;;;5041442;28;20255;-40
2023/09/22 02:58:08;;;;;;;2.63;1.23;;;15.50;99.90;;;;;;5046126;28;20107;-36
2023/09/22 03:00:36;;;;;;;1.48;1.10;;;15.40;99.90;;;;;;5042150;28;20048;-40
2023/09/22 03:03:05;;;;;;;2.03;1.20;;;15.40;99.90;;;;;;5047782;28;20158;-38
2023/09/22 03:05:32;;;;;;;5.45;1.55;;;15.40;99.90;;;;;;5042452;28;20049;-38
2023/09/22 03:07:59;;;;;;;2.00;1.20;;;15.40;99.90;;;;;;5044252;28;20156;-37
2023/09/22 03:10:29;;;;;;;2.55;1.27;;;15.50;99.90;;;;;;5050903;28;20049;-39
2023/09/22 03:12:58;;;;;;;3.67;1.38;;;15.40;99.90;;;;;;5047473;28;20045;-37
2023/09/22 03:15:26;;;;;;;2.63;1.20;;;15.40;99.90;;;;;;5048225;28;20509;-39
2023/09/22 03:17:54;;;;;;;2.53;1.08;;;15.40;99.90;;;;;;5036732;28;20528;-38
2023/09/22 03:20:22;;;;;;;2.17;1.20;;;15.30;99.90;;;;;;5048769;28;20044;-41
2023/09/22 03:22:50;;;;;;;1.83;1.08;;;15.30;99.90;;;;;;5047490;28;20603;-41
2023/09/22 03:25:17;;;;;;;1.98;1.20;;;15.40;99.90;;;;;;5046699;28;20136;-40
2023/09/22 03:27:44;;;;;;;2.88;1.13;;;15.30;99.90;;;;;;5053693;28;20045;-40
2023/09/22 03:30:17;;;;;;;3.20;1.30;;;15.40;99.90;;;;;;5048791;28;20429;-40
2023/09/22 03:32:44;;;;;;;2.63;1.20;;;15.40;99.90;;;;;;5048143;28;20117;-39
2023/09/22 03:35:13;;;;;;;2.55;1.33;;;15.40;99.90;;;;;;5056639;28;20049;-39
2023/09/22 03:37:41;;;;;;;3.83;1.42;;;15.40;99.90;;;;;;5043138;28;20131;-39
2023/09/22 03:40:13;;;;;;;2.67;1.30;;;15.40;99.90;;;;;;5051693;28;20108;-40
2023/09/22 03:42:43;;;;;;;3.55;1.30;;;15.30;99.90;;;;;;5054063;28;20112;-39
2023/09/22 03:45:12;;;;;;;2.05;1.05;;;15.30;99.90;;;;;;5044430;28;20457;-39
2023/09/22 03:47:40;;;;;;;2.03;1.20;;;15.30;99.90;;;;;;5043278;28;20045;-39
2023/09/22 03:50:09;;;;;;;3.47;1.50;;;15.40;99.90;;;;;;5046146;28;20579;-40
2023/09/22 03:52:36;;;;;;;3.30;1.52;;;15.40;99.90;;;;;;5045840;28;20382;-39
2023/09/22 03:55:05;;;;;;;2.60;1.42;;;15.40;99.90;;;;;;5037596;28;20552;-38
2023/09/22 03:57:33;;;;;;;3.65;1.50;;;15.30;99.90;;;;;;5042471;28;20081;-38
2023/09/22 04:00:01;;;;;;;2.20;1.15;;;15.30;99.90;;;;;;5038109;28;20060;-37
2023/09/22 04:02:39;;;;;;;3.47;1.50;;;15.20;99.90;;;;;;5044380;28;20037;-39
2023/09/22 04:05:08;;;;;;;3.67;1.23;;;15.30;99.90;;;;;;5045626;28;20048;-39
2023/09/22 04:07:35;;;;;;;4.45;1.92;;;15.30;99.90;;;;;;5038747;28;20557;-37
2023/09/22 04:10:03;;;;;;;7.03;2.90;;;15.20;99.90;;;;;;5044103;28;20057;-40
2023/09/22 04:12:31;;;;;;;6.22;2.10;;;15.20;99.90;;;;;;5051590;28;20128;-40
2023/09/22 04:14:59;;;;;;;5.53;1.88;;;15.30;99.90;;;;;;5051606;28;20068;-37
2023/09/22 04:17:27;;;;;;;7.10;2.10;;;15.30;99.90;;;;;;5039024;28;20510;-40
2023/09/22 04:19:54;;;;;;;5.60;2.10;;;15.20;99.90;;;;;;5037522;28;20080;-39
2023/09/22 04:22:22;;;;;;;5.32;2.03;;;15.20;99.90;;;;;;5048343;28;20122;-39
2023/09/22 04:24:51;;;;;;;4.95;2.10;;;15.20;99.90;;;;;;5050977;28;20047;-39
2023/09/22 04:27:18;;;;;;;6.03;2.15;;;15.20;99.90;;;;;;5042178;28;20517;-39
2023/09/22 04:29:47;;;;;;;4.88;2.00;;;15.10;99.90;;;;;;5044722;28;20123;-38
2023/09/22 04:32:14;;;;;;;5.20;1.65;;;15.10;99.90;;;;;;5049380;28;20055;-39
2023/09/22 04:34:43;;;;;;;4.68;1.60;;;15.10;99.90;;;;;;5050449;28;20493;-38
2023/09/22 04:37:10;;;;;;;2.78;1.42;;;15.10;99.90;;;;;;5051202;28;20079;-39
2023/09/22 04:39:38;;;;;;;3.22;1.80;;;15.10;99.90;;;;;;5049941;28;20064;-37
2023/09/22 04:42:07;;;;;;;3.53;1.30;;;15.10;99.90;;;;;;5044723;28;20094;-40
2023/09/22 04:44:34;;;;;;;2.53;1.30;;;15.20;99.90;;;;;;5048008;28;20124;-38
2023/09/22 04:47:01;;;;;;;2.65;1.45;;;15.20;99.90;;;;;;5057850;28;20386;-36
2023/09/22 04:49:28;;;;;;;4.45;1.70;;;15.10;99.90;;;;;;5048006;28;20103;-38
2023/09/22 04:51:56;;;;;;;5.40;1.80;;;15.10;99.90;;;;;;5047593;28;20044;-36
2023/09/22 04:54:23;;;;;;;3.20;1.40;;;15.10;99.90;;;;;;5047345;28;20042;-40
2023/09/22 04:56:51;;;;;;;3.80;1.60;;;15.10;99.90;;;;;;5038706;28;20057;-36
2023/09/22 04:59:19;;;;;;;4.57;1.73;;;15.20;99.90;;;;;;5041193;28;20040;-40
2023/09/22 05:01:46;;;;;;;3.50;1.50;;;15.20;99.90;;;;;;5043367;28;20048;-40
2023/09/22 05:04:13;;;;;;;5.45;1.48;;;15.30;99.90;;;;;;5050216;28;20429;-38
2023/09/22 05:06:44;;;;;;;3.88;1.67;;;15.20;99.90;;;;;;5051453;28;20509;-37
2023/09/22 05:09:11;;;;;;;2.63;1.52;;;15.30;99.90;;;;;;5041672;28;20183;-39
2023/09/22 05:11:38;;;;;;;4.13;1.45;;;15.20;99.90;;;;;;5043677;28;20588;-38
2023/09/22 05:14:06;;;;;;;2.97;1.60;;;15.10;99.90;;;;;;5053009;28;20069;-46
2023/09/22 05:16:33;;;;;;;2.33;1.48;;;15.10;99.90;;;;;;5048417;28;20079;-40
2023/09/22 05:19:00;;;;;;;2.78;1.40;;;15.00;99.90;;;;;;5048231;28;20044;-37
2023/09/22 05:21:28;;;;;;;3.08;1.60;;;15.10;99.90;;;;;;5048225;28;20049;-37
2023/09/22 05:23:55;;;;;;;2.47;1.27;;;15.10;99.90;;;;;;5041404;28;20144;-38
2023/09/22 05:26:22;;;;;;;4.45;1.50;;;15.10;99.90;;;;;;5046987;28;20168;-40
2023/09/22 05:28:50;;;;;;;4.05;1.85;;;15.10;99.90;;;;;;5044844;28;20541;-38
2023/09/22 05:31:19;;;;;;;5.00;1.73;;;15.00;99.90;;;;;;5060345;28;20071;-39
2023/09/22 05:33:47;;;;;;;2.30;1.40;;;15.10;99.90;;;;;;5051022;28;20068;-40
2023/09/22 05:36:14;;;;;;;4.82;2.00;;;15.10;99.90;;;;;;5038496;28;20049;-40
2023/09/22 05:38:41;;;;;;;2.92;1.85;;;15.10;99.90;;;;;;5053945;28;20048;-40
2023/09/22 05:41:09;;;;;;;4.30;1.77;;;15.10;99.90;;;;;;5047031;28;20044;-38
2023/09/22 05:43:38;;;;;;;2.85;1.27;;;15.10;99.90;;;;;;5040377;28;20039;-40
2023/09/22 05:46:07;;;;;;;3.58;1.60;;;15.20;99.90;;;;;;5045295;28;20093;-36
2023/09/22 05:48:34;;;;;;;3.55;2.05;;;15.10;99.90;;;;;;5036635;28;20133;-37
2023/09/22 05:51:02;;;;;;;3.00;1.42;;;15.20;99.90;;;;;;5049208;28;20046;-39
2023/09/22 05:53:30;;;;;;;3.55;1.73;;;15.20;99.90;;;;;;5037001;28;20418;-38
2023/09/22 05:56:08;;;;;;;3.15;1.73;;;15.20;99.90;;;;;;5046145;28;20045;-39
2023/09/22 05:58:37;;;;;;;3.85;1.73;;;15.20;99.90;;;;;;5045131;28;20055;-40
2023/09/22 06:01:11;;;;;;;2.55;1.50;;;15.20;99.90;;;;;;5039290;28;20539;-39
2023/09/22 06:03:40;;;;;;;3.42;1.73;;;15.20;99.90;;;;;;5041279;28;20549;-39
2023/09/22 06:06:11;;;;;;;4.43;1.90;;;15.20;99.90;;;;;;5041773;28;20380;-39
2023/09/22 06:08:39;;;;;;;4.28;1.80;;;15.20;99.90;;;;;;5048509;28;20071;-41
2023/09/22 06:11:08;;;;;;;3.53;2.03;;;15.20;99.90;;;;;;5047190;28;20044;-39
2023/09/22 06:13:35;;;;;;;3.60;1.65;;;15.30;99.90;;;;;;5039844;28;20045;-38
2023/09/22 06:16:04;;;;;;;2.55;1.45;;;15.20;99.90;;;;;;5047375;28;20540;-37
2023/09/22 06:18:32;;;;;;;3.08;1.60;;;15.20;99.90;;;;;;5047672;28;20456;-41
2023/09/22 06:21:01;;;;;;;3.28;1.70;;;15.10;99.90;;;;;;5042588;28;20036;-37
2023/09/22 06:23:29;;;;;;;4.78;2.10;;;15.10;99.90;;;;;;5049432;28;20045;-37
2023/09/22 06:26:10;;;;;;;4.43;1.85;;;15.10;99.90;;;;;;5054801;28;20140;-37
2023/09/22 06:28:38;;;;;;;4.13;1.80;;;15.10;99.90;;;;;;5050311;28;20045;-38
2023/09/22 06:31:06;;;;;;;3.22;1.70;;;15.10;99.90;;;;;;5038961;28;20072;-39
2023/09/22 06:33:34;;;;;;;5.60;2.08;;;15.20;99.90;;;;;;5041199;28;20072;-37
2023/09/22 06:36:03;;;;;;;4.22;2.08;;;15.20;99.90;;;;;;5045382;28;20044;-36
2023/09/22 06:38:35;;;;;;;3.42;1.95;;;15.20;99.90;;;;;;5045329;28;20176;-37
2023/09/22 06:41:04;;;;;;;2.92;1.77;;;15.10;99.90;;;;;;5043466;28;20058;-40
2023/09/22 06:43:33;;;;;;;4.40;1.70;;;15.20;99.90;;;;;;5032954;28;20033;-39
2023/09/22 06:46:04;;;;;;;6.85;3.05;;;15.20;99.90;;;;;;5056864;28;20041;-38
2023/09/22 06:48:32;;;;;;;3.63;1.53;;;15.30;99.90;;;;;;5042468;28;20046;-40
2023/09/22 06:51:00;;;;;;;3.47;1.63;;;15.20;99.90;;;;;;5040917;28;20045;-38
2023/09/22 06:53:32;;;;;;;4.45;2.08;;;15.30;99.90;;;;;;5045233;28;20079;-38
2023/09/22 06:56:03;;;;;;;;;;;15.30;99.90;;;;;;5055444;28;21270;-40
2023/09/22 06:58:31;;;;;;;5.25;2.00;;;15.40;99.90;;;;;;5050825;28;19982;-37
2023/09/22 07:01:09;;;;;;;4.25;1.55;;;15.50;99.90;;;;;;5055365;28;20122;-39
2023/09/22 07:03:42;;;;;;;5.43;1.70;;;15.40;99.90;;;;;;5041637;28;20391;-38
2023/09/22 07:06:14;;;;;;;4.70;2.22;;;15.50;99.90;;;;;;5042777;28;20438;-41
2023/09/22 07:08:45;;;;;;;3.97;1.70;;;15.60;99.90;;;;;;5036522;28;20053;-44
2023/09/22 07:11:15;;;;;;;3.55;1.90;;;15.60;99.90;;;;;;5048242;28;20041;-39
2023/09/22 07:13:42;;;;;;;3.42;1.88;;;15.80;99.90;;;;;;5044864;28;20570;-39
2023/09/22 07:16:10;;;;;;;4.45;1.70;;;16.00;99.90;;;;;;5051992;28;20518;-43
2023/09/22 07:18:38;;;;;;;5.88;1.70;;;16.00;99.90;;;;;;5044060;28;20048;-42
2023/09/22 07:21:09;;;;;;;6.22;2.00;;;16.10;99.90;;;;;;5037416;28;20055;-42
2023/09/22 07:23:37;;;;;;;3.45;1.95;;;16.20;99.90;;;;;;5046293;28;20044;-43
2023/09/22 07:26:08;;;;;;;7.53;3.58;;;16.20;99.90;;;;;;5043901;28;20107;-43
2023/09/22 07:28:36;;;;;;;5.97;2.35;;;16.20;99.90;;;;;;5037982;28;20437;-45
2023/09/22 07:31:14;;;;;;;3.33;1.92;;;16.30;99.90;;;;;;5046009;28;20072;-42
2023/09/22 07:33:43;;;;;;;3.78;1.75;;;16.30;99.90;;;;;;5046668;28;20053;-43
2023/09/22 07:36:11;;;;;;;3.67;1.83;;;16.50;99.90;;;;;;5044159;28;20144;-43
2023/09/22 07:38:39;;;;;;;3.90;1.98;;;16.50;99.90;;;;;;5045460;28;20033;-41
2023/09/22 07:41:07;;;;;;;7.25;2.33;;;16.70;99.90;;;;;;5040995;28;20054;-44
2023/09/22 07:43:35;;;;;;;5.30;2.33;;;16.80;99.90;;;;;;5041162;28;20498;-40
2023/09/22 07:46:06;;;;;;;4.07;2.10;;;16.90;99.90;;;;;;5052025;28;20041;-44
2023/09/22 07:48:35;;;;;;;7.05;2.10;;;16.90;99.90;;;;;;5043841;28;20514;-42
2023/09/22 07:51:03;;;;;;;4.75;2.20;;;16.70;99.90;;;;;;5040632;28;20038;-43
2023/09/22 07:53:31;;;;;;;4.68;2.47;;;16.60;99.90;;;;;;5050640;28;20527;-45
2023/09/22 07:56:01;;;;;;;2.92;1.70;;;16.60;99.90;;;;;;5045340;28;20537;-45
2023/09/22 07:58:29;;;;;;;4.68;2.15;;;16.40;99.90;;;;;;5048560;28;20104;-41
2023/09/22 08:00:59;;;;;;;5.18;2.00;;;16.40;99.90;;;;;;5050781;28;20067;-40
2023/09/22 08:03:27;;;;;;;4.38;2.00;;;16.30;99.90;;;;;;5049832;28;20060;-42
2023/09/22 08:05:55;;;;;;;4.05;2.60;;;16.30;99.90;;;;;;5043894;28;20045;-44
2023/09/22 08:08:24;;;;;;;4.35;2.03;;;16.50;99.90;;;;;;5050659;28;20045;-43
2023/09/22 08:10:53;;;;;;;4.43;2.20;;;16.50;99.90;;;;;;5051544;28;20044;-44
2023/09/22 08:13:21;;;;;;;5.10;2.45;;;16.40;99.90;;;;;;5048997;28;20505;-45
2023/09/22 08:15:49;;;;;;;3.60;2.25;;;16.40;99.90;;;;;;5044361;28;20498;-41
2023/09/22 08:18:16;;;;;;;4.72;3.00;;;16.30;99.90;;;;;;5048080;28;20033;-44
2023/09/22 08:20:44;;;;;;;3.63;2.53;;;16.50;99.90;;;;;;5053687;28;20361;-52
2023/09/22 08:23:11;;;;;;;4.10;2.42;;;16.50;99.90;;;;;;5042997;28;20056;-39
2023/09/22 08:25:43;;;;;;;5.25;2.70;;;16.50;99.90;;;;;;5052831;28;20068;-40
2023/09/22 08:28:14;;;;;;;6.53;2.60;;;16.50;99.90;;;;;;5049655;28;20416;-38
2023/09/22 08:30:41;;;;;;;4.28;2.70;;;16.50;99.90;;;;;;5049376;28;20102;-39
2023/09/22 08:33:09;;;;;;;6.90;3.22;;;16.60;99.90;;;;;;5051814;28;20076;-40
2023/09/22 08:35:39;;;;;;;8.13;2.88;;;16.60;99.90;;;;;;5046073;28;20066;-40
2023/09/22 08:38:24;;;;;;;4.32;2.60;;;16.70;99.90;;;;;;5064497;28;20068;-38
2023/09/22 08:40:52;;;;;;;4.40;2.70;;;16.50;99.90;;;;;;5065741;28;20041;-39
2023/09/22 08:43:20;;;;;;;8.20;2.70;;;16.50;99.90;;;;;;5057737;28;20067;-39
2023/09/22 08:45:47;;;;;;;4.88;2.30;;;16.70;99.90;;;;;;5052277;28;20059;-38
2023/09/22 08:48:15;;;;;;;4.25;2.55;;;16.70;99.90;;;;;;5049543;28;20115;-40
2023/09/22 08:50:44;;;;;;;4.75;2.92;;;16.70;99.90;;;;;;5052541;28;20041;-36
2023/09/22 08:53:12;;;;;;;5.13;2.78;;;16.70;99.90;;;;;;5042696;28;20057;-39
2023/09/22 08:55:39;;;;;;;8.32;3.00;;;16.70;99.90;;;;;;5034943;28;20141;-40
2023/09/22 08:58:07;;;;;;;5.75;3.58;;;16.60;99.90;;;;;;5042650;28;20033;-39
2023/09/22 09:00:36;;;;;;;4.68;2.58;;;16.70;99.90;;;;;;5046802;28;20072;-40
2023/09/22 09:03:10;;;;;;;5.18;2.97;;;16.70;99.90;;;;;;5060690;28;20039;-39
2023/09/22 09:05:39;;;;;;;4.72;3.20;;;16.70;99.90;;;;;;5064505;28;20033;-38
2023/09/22 09:08:12;;;;;;;6.13;2.80;;;16.80;99.90;;;;;;5060835;28;20060;-39
2023/09/22 09:10:40;;;;;;;4.88;2.70;;;16.80;99.90;;;;;;5052837;28;20049;-39
2023/09/22 09:13:19;;;;;;;5.78;2.85;;;16.90;99.90;;;;;;5055030;28;20132;-39
2023/09/22 09:15:53;;;;;;;6.53;2.55;;;16.90;99.90;;;;;;5062371;28;20072;-36
2023/09/22 09:18:24;;;;;;;4.55;2.75;;;16.70;99.90;;;;;;5047647;28;20113;-39
2023/09/22 09:21:15;;;;;;;6.13;3.35;;;16.90;99.90;;;;;;5049403;28;20045;-37
2023/09/22 09:23:54;;;;;;;5.75;3.17;;;17.00;99.90;;;;;;5050954;28;20045;-38
2023/09/22 09:26:27;;;;;;;8.02;3.17;;;17.00;99.90;;;;;;5039630;28;20156;-37
2023/09/22 09:28:55;;;;;;;4.78;2.72;;;16.80;99.90;;;;;;5047969;28;20502;-37
2023/09/22 09:31:47;;;;;;;4.95;3.20;;;16.90;99.90;;;;;;5040296;28;20063;-35
2023/09/22 09:34:16;;;;;;;7.72;3.08;;;17.10;99.90;;;;;;5048643;28;20049;-37
2023/09/22 09:36:43;;;;;;;7.95;3.45;;;17.00;99.90;;;;;;5044521;28;20069;-40
2023/09/22 09:39:12;;;;;;;4.88;3.30;;;16.80;99.90;;;;;;5042468;28;20518;-38
2023/09/22 09:41:43;;;;;;;4.43;3.10;;;16.60;99.90;;;;;;5048121;28;20123;-37
2023/09/22 09:44:11;;;;;;;5.05;3.45;;;16.50;99.90;;;;;;5040562;28;20540;-40
2023/09/22 09:46:42;;;;;;;4.88;2.90;;;16.50;99.90;;;;;;5046139;28;20418;-37
2023/09/22 09:49:13;;;;;;;5.53;3.15;;;16.50;99.90;;;;;;5049451;28;20052;-39
2023/09/22 09:51:46;;;;;;;3.97;2.72;;;16.40;99.90;;;;;;5054075;28;20060;-38
2023/09/22 09:54:17;;;;;;;4.03;2.50;;;16.30;99.90;;;;;;5056387;28;20113;-37
2023/09/22 09:56:46;;;;;;;3.90;2.60;;;16.30;99.90;;;;;;5041943;28;20086;-39
2023/09/22 09:59:14;;;;;;;4.53;2.88;;;16.30;99.90;;;;;;5057688;28;20075;-39
2023/09/22 10:01:42;;;;;;;4.93;2.30;;;16.30;99.90;;;;;;5049062;28;20037;-39
2023/09/22 10:04:10;;;;;;;6.25;2.75;;;16.40;99.90;;;;;;5042198;28;20753;-39
2023/09/22 10:06:39;;;;;;;18.08;12.07;;;16.40;99.90;;;;;;5047688;28;20128;-39
2023/09/22 10:09:18;;;;;;;9.95;3.47;;;16.40;99.90;;;;;;5048888;28;20049;-36
2023/09/22 10:11:48;;;;;;;4.40;2.40;;;16.50;99.90;;;;;;5051411;28;20489;-38
2023/09/22 10:14:46;;;;;;;5.15;2.22;;;16.50;99.90;;;;;;5048478;28;20061;-37
2023/09/22 10:17:21;;;;;;;4.32;2.42;;;16.60;99.90;;;;;;5048566;28;20053;-38
2023/09/22 10:19:49;;;;;;;3.83;2.17;;;16.70;99.90;;;;;;5050850;28;20051;-37
2023/09/22 10:22:17;;;;;;;4.40;2.40;;;16.90;99.90;;;;;;5039891;28;20041;-39
2023/09/22 10:24:44;;;;;;;4.18;2.35;;;16.80;99.90;;;;;;5041492;28;20044;-39
2023/09/22 10:27:22;;;;;;;4.75;2.20;;;16.80;99.90;;;;;;5047324;28;22883;-39
2023/09/22 10:29:52;;;;;;;9.63;6.10;;;16.70;99.90;;;;;;5046604;28;20049;-38
2023/09/22 10:32:21;;;;;;;4.82;2.72;;;16.70;99.90;;;;;;5045366;28;20473;-39
2023/09/22 10:34:51;;;;;;;5.40;2.30;;;16.90;99.90;;;;;;5045502;28;20072;-38
2023/09/22 10:37:22;;;;;;;6.50;2.67;;;17.10;99.90;;;;;;5051839;28;20128;-37
2023/09/22 10:39:56;;;;;;;5.23;2.00;;;17.20;99.90;;;;;;5049844;28;20037;-38
2023/09/22 10:42:25;;;;;;;3.42;2.00;;;17.20;99.90;;;;;;5049223;28;20041;-38
2023/09/22 10:45:00;;;;;;;3.58;2.25;;;17.40;99.90;;;;;;5046798;28;20101;-38
2023/09/22 10:47:44;;;;;;;4.05;2.38;;;17.50;99.90;;;;;;5044382;28;20097;-39
2023/09/22 10:50:19;;;;;;;4.45;2.33;;;17.70;99.90;;;;;;5047729;28;20041;-39
2023/09/22 10:52:54;;;;;;;5.28;3.35;;;17.80;99.90;;;;;;5041990;28;20048;-37
2023/09/22 10:55:31;;;;;;;4.53;2.83;;;17.90;99.90;;;;;;5039270;28;20096;-38
2023/09/22 10:57:59;;;;;;;3.95;2.17;;;17.90;99.90;;;;;;5048154;28;20389;-41
2023/09/22 11:00:27;;;;;;;5.63;2.47;;;17.90;99.90;;;;;;5050007;28;20454;-40
2023/09/22 11:03:02;;;;;;;4.22;2.05;;;17.70;99.90;;;;;;5040899;28;20116;-39
2023/09/22 11:05:30;;;;;;;3.85;1.88;;;17.50;99.90;;;;;;5044900;28;20072;-40
2023/09/22 11:07:57;;;;;;;4.10;2.20;;;17.30;99.90;;;;;;5044254;28;20079;-36
2023/09/22 11:10:25;;;;;;;3.28;2.15;;;17.20;99.90;;;;;;5041204;28;20355;-37
2023/09/22 11:12:54;;;;;;;4.88;2.33;;;17.20;99.90;;;;;;5047561;28;20128;-39
2023/09/22 11:15:22;;;;;;;4.57;2.13;;;16.90;99.90;;;;;;5051112;28;20041;-38
2023/09/22 11:17:49;;;;;;;7.03;2.05;;;16.60;99.90;;;;;;5041766;28;20040;-36
2023/09/22 11:20:18;;;;;;;2.33;1.70;;;16.60;99.90;;;;;;5050229;28;20044;-36
2023/09/22 11:22:47;;;;;;;5.53;2.05;;;16.50;99.90;;;;;;5046927;28;20040;-39
2023/09/22 11:25:14;;;;;;;3.88;1.80;;;16.50;99.90;;;;;;5044774;28;20103;-38
2023/09/22 11:27:50;;;;;;;14.73;7.30;;;16.30;99.90;;;;;;5049617;28;20061;-38
2023/09/22 11:30:27;;;;;;;6.38;1.90;;;16.40;99.90;;;;;;5040983;28;20417;-37
2023/09/22 11:32:58;;;;;;;4.10;1.90;;;16.60;99.90;;;;;;5039004;28;20430;-37
2023/09/22 11:35:39;;;;;;;3.97;1.98;;;16.50;99.90;;;;;;5047316;28;20083;-39
2023/09/22 11:38:31;;;;;;;4.88;2.05;;;16.60;99.90;;;;;;5047317;28;20052;-40
2023/09/22 11:41:05;;;;;;;3.25;2.08;;;16.90;99.90;;;;;;5046088;28;20042;-39
2023/09/22 11:43:32;;;;;;;5.18;2.10;;;17.00;99.90;;;;;;5047850;28;20052;-40
2023/09/22 11:46:10;;;;;;;3.55;2.35;;;17.10;99.90;;;;;;5047313;28;20041;-40
2023/09/22 11:49:02;;;;;;;3.63;2.15;;;16.90;99.90;;;;;;5038737;28;20123;-39
2023/09/22 11:51:51;;;;;;;4.30;2.10;;;16.70;99.90;;;;;;5048855;28;20048;-40
2023/09/22 11:54:20;;;;;;;7.85;4.95;;;16.70;99.90;;;;;;5065719;28;20072;-38
2023/09/22 11:56:48;;;;;;;5.03;2.50;;;16.70;99.90;;;;;;5060442;28;20056;-38
2023/09/22 11:59:20;;;;;;;4.35;2.30;;;16.80;99.90;;;;;;5047533;28;20071;-41
2023/09/22 12:01:51;;;;;;;3.58;2.17;;;16.80;99.90;;;;;;5048532;28;20121;-40
2023/09/22 12:04:19;;;;;;;3.05;1.88;;;16.80;99.90;;;;;;5037918;28;20402;-37
2023/09/22 12:06:48;;;;;;;3.90;2.38;;;16.80;99.90;;;;;;5039304;28;20114;-37
2023/09/22 12:09:17;;;;;;;6.45;2.67;;;16.80;99.90;;;;;;5042920;28;20049;-37
2023/09/22 12:11:45;;;;;;;4.80;2.30;;;16.90;99.90;;;;;;5050057;28;20056;-37
2023/09/22 12:14:12;;;;;;;4.22;2.17;;;17.10;99.90;;;;;;5048901;28;20041;-37
2023/09/22 12:16:41;;;;;;;4.63;2.45;;;17.30;99.90;;;;;;5050026;28;20033;-38
2023/09/22 12:19:08;;;;;;;4.47;2.50;;;17.40;99.90;;;;;;5043004;28;20048;-39
2023/09/22 12:21:36;;;;;;;5.38;2.97;;;17.70;99.90;;;;;;5040119;28;20037;-37
2023/09/22 12:24:04;;;;;;;5.95;3.55;;;17.80;99.90;;;;;;5057731;28;20077;-39
2023/09/22 12:26:32;;;;;;;4.45;3.33;;;17.70;99.90;;;;;;5042773;28;20063;-35
2023/09/22 12:29:05;;;;;;;6.07;4.07;;;17.70;99.90;;;;;;5040311;28;20052;-38
2023/09/22 12:31:34;;;;;;;4.07;3.08;;;17.80;99.90;;;;;;5045203;28;20045;-40
2023/09/22 12:34:02;;;;;;;5.40;3.28;;;17.90;99.90;;;;;;5051967;28;20067;-39
2023/09/22 12:36:30;;;;;;;3.95;2.80;;;18.00;99.90;;;;;;5048687;28;20045;-37
2023/09/22 12:38:58;;;;;;;6.47;2.85;;;18.20;99.90;;;;;;5052382;28;20049;-40
2023/09/22 12:41:25;;;;;;;4.18;2.85;;;18.20;99.90;;;;;;5046402;28;20350;-37
2023/09/22 12:43:53;;;;;;;6.22;3.20;;;18.10;99.90;;;;;;5041089;28;20087;-40
2023/09/22 12:46:21;;;;;;;5.00;2.80;;;18.20;99.90;;;;;;5055055;28;20071;-40
2023/09/22 12:48:49;;;;;;;5.63;2.90;;;18.30;99.90;;;;;;5062433;28;20087;-37
2023/09/22 12:51:16;;;;;;;5.18;2.60;;;18.30;99.90;;;;;;5050277;28;20127;-37
2023/09/22 12:53:43;;;;;;;5.38;2.92;;;18.00;99.90;;;;;;5050867;28;20041;-37
2023/09/22 12:56:12;;;;;;;4.90;2.50;;;17.80;99.90;;;;;;5048273;28;20053;-39
2023/09/22 12:58:39;;;;;;;9.57;5.82;;;17.70;99.90;;;;;;5040678;28;20589;-37